sensor_id;sensor_type;location;lat;lon;timestamp;P1;durP1;ratioP1;P2;durP2;ratioP2
6306;SDS011;3186;54.062;9.962;2023-02-28T00:01:24;4.43;;;3.50;;
6306;SDS011;3186;54.062;9.962;2023-02-28T00:03:50;8.67;;;3.93;;
6306;SDS011;3186;54.062;9.962;2023-02-28T00:06:16;7.27;;;3.90;;
6306;SDS011;3186;54.062;9.962;2023-02-28T00:08:42;8.30;;;3.90;;
6306;SDS011;3186;54.062;9.962;2023-02-28T00:11:10;8.67;;;4.00;;
6306;SDS011;3186;54.062;9.962;2023-02-28T00:13:38;7.13;;;3.50;;
6306;SDS011;3186;54.062;9.962;2023-02-28T00:16:06;6.87;;;3.83;;
6306;SDS011;3186;54.062;9.962;2023-02-28T00:18:34;10.47;;;4.00;;
6306;SDS011;3186;54.062;9.962;2023-02-28T00:21:00;7.07;;;3.43;;
6306;SDS011;3186;54.062;9.962;2023-02-28T00:23:27;9.67;;;3.60;;
6306;SDS011;3186;54.062;9.962;2023-02-28T00:25:54;8.47;;;3.17;;
6306;SDS011;3186;54.062;9.962;2023-02-28T00:28:20;4.73;;;3.13;;
6306;SDS011;3186;54.062;9.962;2023-02-28T00:30:47;6.80;;;3.57;;
6306;SDS011;3186;54.062;9.962;2023-02-28T00:33:13;7.33;;;3.37;;
6306;SDS011;3186;54.062;9.962;2023-02-28T00:35:39;6.60;;;2.97;;
6306;SDS011;3186;54.062;9.962;2023-02-28T00:38:08;6.67;;;3.27;;
6306;SDS011;3186;54.062;9.962;2023-02-28T00:40:34;5.00;;;2.77;;
6306;SDS011;3186;54.062;9.962;2023-02-28T00:42:59;7.70;;;3.20;;
6306;SDS011;3186;54.062;9.962;2023-02-28T00:45:25;4.80;;;3.00;;
6306;SDS011;3186;54.062;9.962;2023-02-28T00:47:51;4.20;;;2.87;;
6306;SDS011;3186;54.062;9.962;2023-02-28T00:50:17;6.17;;;3.00;;
6306;SDS011;3186;54.062;9.962;2023-02-28T00:52:45;4.80;;;3.33;;
6306;SDS011;3186;54.062;9.962;2023-02-28T00:55:13;7.17;;;3.43;;
6306;SDS011;3186;54.062;9.962;2023-02-28T00:57:39;7.77;;;3.00;;
6306;SDS011;3186;54.062;9.962;2023-02-28T01:00:05;4.53;;;3.00;;
6306;SDS011;3186;54.062;9.962;2023-02-28T01:02:31;5.13;;;2.87;;
6306;SDS011;3186;54.062;9.962;2023-02-28T01:04:57;6.27;;;3.27;;
6306;SDS011;3186;54.062;9.962;2023-02-28T01:07:23;6.63;;;3.00;;
6306;SDS011;3186;54.062;9.962;2023-02-28T01:09:49;6.57;;;3.53;;
6306;SDS011;3186;54.062;9.962;2023-02-28T01:12:15;5.20;;;3.33;;
6306;SDS011;3186;54.062;9.962;2023-02-28T01:14:41;6.20;;;3.33;;
6306;SDS011;3186;54.062;9.962;2023-02-28T01:17:07;5.40;;;3.00;;
6306;SDS011;3186;54.062;9.962;2023-02-28T01:19:33;7.63;;;3.50;;
6306;SDS011;3186;54.062;9.962;2023-02-28T01:22:02;8.50;;;3.37;;
6306;SDS011;3186;54.062;9.962;2023-02-28T01:24:28;6.27;;;3.30;;
6306;SDS011;3186;54.062;9.962;2023-02-28T01:26:55;5.93;;;3.33;;
6306;SDS011;3186;54.062;9.962;2023-02-28T01:29:20;6.00;;;3.13;;
6306;SDS011;3186;54.062;9.962;2023-02-28T01:31:46;7.97;;;4.07;;
6306;SDS011;3186;54.062;9.962;2023-02-28T01:34:12;6.23;;;3.17;;
6306;SDS011;3186;54.062;9.962;2023-02-28T01:36:38;6.80;;;3.67;;
6306;SDS011;3186;54.062;9.962;2023-02-28T01:39:03;6.27;;;3.80;;
6306;SDS011;3186;54.062;9.962;2023-02-28T01:41:30;6.63;;;3.13;;
6306;SDS011;3186;54.062;9.962;2023-02-28T01:46:28;5.37;;;3.73;;
6306;SDS011;3186;54.062;9.962;2023-02-28T01:51:43;6.80;;;3.80;;
6306;SDS011;3186;54.062;9.962;2023-02-28T01:54:33;9.43;;;3.77;;
6306;SDS011;3186;54.062;9.962;2023-02-28T01:57:04;8.40;;;3.93;;
6306;SDS011;3186;54.062;9.962;2023-02-28T01:59:35;6.40;;;3.53;;
6306;SDS011;3186;54.062;9.962;2023-02-28T02:02:26;5.50;;;3.73;;
6306;SDS011;3186;54.062;9.962;2023-02-28T02:04:55;8.37;;;4.03;;
6306;SDS011;3186;54.062;9.962;2023-02-28T02:07:26;9.77;;;4.03;;
6306;SDS011;3186;54.062;9.962;2023-02-28T02:10:04;7.77;;;3.60;;
6306;SDS011;3186;54.062;9.962;2023-02-28T02:18:21;8.07;;;3.97;;
6306;SDS011;3186;54.062;9.962;2023-02-28T02:40:25;7.80;;;4.20;;
6306;SDS011;3186;54.062;9.962;2023-02-28T02:43:06;7.93;;;4.87;;
6306;SDS011;3186;54.062;9.962;2023-02-28T02:45:49;9.33;;;4.53;;
6306;SDS011;3186;54.062;9.962;2023-02-28T02:48:21;10.87;;;4.47;;
6306;SDS011;3186;54.062;9.962;2023-02-28T02:50:55;7.80;;;4.67;;
6306;SDS011;3186;54.062;9.962;2023-02-28T02:53:32;10.23;;;5.00;;
6306;SDS011;3186;54.062;9.962;2023-02-28T02:56:02;6.93;;;4.17;;
6306;SDS011;3186;54.062;9.962;2023-02-28T02:58:32;9.53;;;4.73;;
6306;SDS011;3186;54.062;9.962;2023-02-28T03:01:07;7.27;;;4.40;;
6306;SDS011;3186;54.062;9.962;2023-02-28T03:03:35;7.93;;;4.50;;
6306;SDS011;3186;54.062;9.962;2023-02-28T03:06:02;5.43;;;3.83;;
6306;SDS011;3186;54.062;9.962;2023-02-28T03:08:33;8.73;;;4.33;;
6306;SDS011;3186;54.062;9.962;2023-02-28T03:11:06;6.70;;;4.73;;
6306;SDS011;3186;54.062;9.962;2023-02-28T03:25:09;9.87;;;4.33;;
6306;SDS011;3186;54.062;9.962;2023-02-28T03:30:49;9.20;;;4.90;;
6306;SDS011;3186;54.062;9.962;2023-02-28T03:33:33;8.93;;;5.00;;
6306;SDS011;3186;54.062;9.962;2023-02-28T03:36:06;7.00;;;4.53;;
6306;SDS011;3186;54.062;9.962;2023-02-28T03:41:14;6.63;;;4.37;;
6306;SDS011;3186;54.062;9.962;2023-02-28T03:43:54;8.30;;;4.77;;
6306;SDS011;3186;54.062;9.962;2023-02-28T03:46:24;8.57;;;4.80;;
6306;SDS011;3186;54.062;9.962;2023-02-28T03:49:02;8.10;;;4.57;;
6306;SDS011;3186;54.062;9.962;2023-02-28T03:51:34;7.23;;;4.93;;
6306;SDS011;3186;54.062;9.962;2023-02-28T03:54:05;7.93;;;4.33;;
6306;SDS011;3186;54.062;9.962;2023-02-28T03:56:37;8.03;;;4.60;;
6306;SDS011;3186;54.062;9.962;2023-02-28T03:59:14;7.20;;;4.43;;
6306;SDS011;3186;54.062;9.962;2023-02-28T04:01:49;10.93;;;5.37;;
6306;SDS011;3186;54.062;9.962;2023-02-28T04:04:17;7.87;;;5.20;;
6306;SDS011;3186;54.062;9.962;2023-02-28T04:06:43;9.67;;;5.50;;
6306;SDS011;3186;54.062;9.962;2023-02-28T04:09:11;9.67;;;5.60;;
6306;SDS011;3186;54.062;9.962;2023-02-28T04:11:45;9.47;;;4.97;;
6306;SDS011;3186;54.062;9.962;2023-02-28T04:14:18;7.47;;;4.77;;
6306;SDS011;3186;54.062;9.962;2023-02-28T04:16:44;10.20;;;5.53;;
6306;SDS011;3186;54.062;9.962;2023-02-28T04:19:11;11.47;;;5.37;;
6306;SDS011;3186;54.062;9.962;2023-02-28T04:21:38;7.73;;;5.07;;
6306;SDS011;3186;54.062;9.962;2023-02-28T04:24:05;8.13;;;5.53;;
6306;SDS011;3186;54.062;9.962;2023-02-28T04:26:32;9.63;;;5.33;;
6306;SDS011;3186;54.062;9.962;2023-02-28T04:28:59;11.23;;;5.03;;
6306;SDS011;3186;54.062;9.962;2023-02-28T04:31:26;11.23;;;5.47;;
6306;SDS011;3186;54.062;9.962;2023-02-28T04:33:52;7.70;;;4.87;;
6306;SDS011;3186;54.062;9.962;2023-02-28T04:36:18;8.57;;;5.43;;
6306;SDS011;3186;54.062;9.962;2023-02-28T04:38:44;11.23;;;5.20;;
6306;SDS011;3186;54.062;9.962;2023-02-28T04:41:10;11.87;;;5.40;;
6306;SDS011;3186;54.062;9.962;2023-02-28T04:43:37;9.50;;;5.03;;
6306;SDS011;3186;54.062;9.962;2023-02-28T04:46:03;7.07;;;5.10;;
6306;SDS011;3186;54.062;9.962;2023-02-28T04:48:31;7.23;;;5.17;;
6306;SDS011;3186;54.062;9.962;2023-02-28T04:51:03;9.03;;;5.50;;
6306;SDS011;3186;54.062;9.962;2023-02-28T04:53:33;8.37;;;5.50;;
6306;SDS011;3186;54.062;9.962;2023-02-28T04:56:00;8.23;;;4.83;;
6306;SDS011;3186;54.062;9.962;2023-02-28T04:58:26;8.63;;;4.83;;
6306;SDS011;3186;54.062;9.962;2023-02-28T05:00:53;8.10;;;5.30;;
6306;SDS011;3186;54.062;9.962;2023-02-28T05:03:26;8.70;;;5.60;;
6306;SDS011;3186;54.062;9.962;2023-02-28T05:05:51;10.53;;;5.90;;
6306;SDS011;3186;54.062;9.962;2023-02-28T05:08:17;10.30;;;5.20;;
6306;SDS011;3186;54.062;9.962;2023-02-28T05:10:43;8.90;;;5.20;;
6306;SDS011;3186;54.062;9.962;2023-02-28T05:13:11;8.83;;;5.23;;
6306;SDS011;3186;54.062;9.962;2023-02-28T05:15:37;7.57;;;5.17;;
6306;SDS011;3186;54.062;9.962;2023-02-28T05:18:03;7.47;;;5.03;;
6306;SDS011;3186;54.062;9.962;2023-02-28T05:20:29;10.87;;;5.00;;
6306;SDS011;3186;54.062;9.962;2023-02-28T05:22:55;7.77;;;5.37;;
6306;SDS011;3186;54.062;9.962;2023-02-28T05:25:23;8.60;;;5.67;;
6306;SDS011;3186;54.062;9.962;2023-02-28T05:27:49;9.37;;;5.20;;
6306;SDS011;3186;54.062;9.962;2023-02-28T05:30:15;12.63;;;5.30;;
6306;SDS011;3186;54.062;9.962;2023-02-28T05:32:41;9.53;;;5.80;;
6306;SDS011;3186;54.062;9.962;2023-02-28T05:35:08;10.90;;;5.80;;
6306;SDS011;3186;54.062;9.962;2023-02-28T05:37:37;9.93;;;5.13;;
6306;SDS011;3186;54.062;9.962;2023-02-28T05:40:06;7.97;;;5.07;;
6306;SDS011;3186;54.062;9.962;2023-02-28T05:42:35;11.33;;;5.37;;
6306;SDS011;3186;54.062;9.962;2023-02-28T05:45:02;9.50;;;5.03;;
6306;SDS011;3186;54.062;9.962;2023-02-28T05:47:29;7.77;;;5.17;;
6306;SDS011;3186;54.062;9.962;2023-02-28T05:49:55;7.63;;;4.73;;
6306;SDS011;3186;54.062;9.962;2023-02-28T05:52:21;9.97;;;5.43;;
6306;SDS011;3186;54.062;9.962;2023-02-28T05:54:47;9.43;;;5.57;;
6306;SDS011;3186;54.062;9.962;2023-02-28T05:57:13;12.93;;;6.50;;
6306;SDS011;3186;54.062;9.962;2023-02-28T05:59:38;15.17;;;6.57;;
6306;SDS011;3186;54.062;9.962;2023-02-28T06:02:14;10.20;;;5.87;;
6306;SDS011;3186;54.062;9.962;2023-02-28T06:04:42;9.03;;;5.20;;
6306;SDS011;3186;54.062;9.962;2023-02-28T06:07:08;10.73;;;5.73;;
6306;SDS011;3186;54.062;9.962;2023-02-28T06:09:35;9.27;;;5.10;;
6306;SDS011;3186;54.062;9.962;2023-02-28T06:12:02;13.23;;;5.30;;
6306;SDS011;3186;54.062;9.962;2023-02-28T06:14:31;8.20;;;5.37;;
6306;SDS011;3186;54.062;9.962;2023-02-28T06:16:58;8.10;;;5.10;;
6306;SDS011;3186;54.062;9.962;2023-02-28T06:19:25;10.33;;;5.13;;
6306;SDS011;3186;54.062;9.962;2023-02-28T06:21:51;9.80;;;5.00;;
6306;SDS011;3186;54.062;9.962;2023-02-28T06:24:18;13.40;;;5.47;;
6306;SDS011;3186;54.062;9.962;2023-02-28T06:26:45;9.53;;;5.53;;
6306;SDS011;3186;54.062;9.962;2023-02-28T06:29:11;8.63;;;5.00;;
6306;SDS011;3186;54.062;9.962;2023-02-28T06:31:36;8.17;;;5.77;;
6306;SDS011;3186;54.062;9.962;2023-02-28T06:34:03;9.77;;;5.33;;
6306;SDS011;3186;54.062;9.962;2023-02-28T06:36:30;14.67;;;5.90;;
6306;SDS011;3186;54.062;9.962;2023-02-28T06:38:59;14.10;;;5.87;;
6306;SDS011;3186;54.062;9.962;2023-02-28T06:41:31;9.97;;;5.70;;
6306;SDS011;3186;54.062;9.962;2023-02-28T06:44:03;7.60;;;5.10;;
6306;SDS011;3186;54.062;9.962;2023-02-28T06:46:40;11.80;;;5.70;;
6306;SDS011;3186;54.062;9.962;2023-02-28T06:49:06;11.33;;;5.93;;
6306;SDS011;3186;54.062;9.962;2023-02-28T06:51:36;11.27;;;6.30;;
6306;SDS011;3186;54.062;9.962;2023-02-28T06:54:04;11.53;;;6.03;;
6306;SDS011;3186;54.062;9.962;2023-02-28T06:56:30;10.97;;;5.33;;
6306;SDS011;3186;54.062;9.962;2023-02-28T06:58:56;11.93;;;5.63;;
6306;SDS011;3186;54.062;9.962;2023-02-28T07:01:22;10.77;;;5.90;;
6306;SDS011;3186;54.062;9.962;2023-02-28T07:03:49;8.20;;;5.87;;
6306;SDS011;3186;54.062;9.962;2023-02-28T07:06:23;9.13;;;5.80;;
6306;SDS011;3186;54.062;9.962;2023-02-28T07:08:50;10.13;;;5.70;;
6306;SDS011;3186;54.062;9.962;2023-02-28T07:11:18;10.50;;;6.07;;
6306;SDS011;3186;54.062;9.962;2023-02-28T07:13:44;8.70;;;5.80;;
6306;SDS011;3186;54.062;9.962;2023-02-28T07:16:12;12.00;;;6.63;;
6306;SDS011;3186;54.062;9.962;2023-02-28T07:18:39;14.77;;;6.50;;
6306;SDS011;3186;54.062;9.962;2023-02-28T07:21:06;9.33;;;5.73;;
6306;SDS011;3186;54.062;9.962;2023-02-28T07:23:33;9.20;;;6.50;;
6306;SDS011;3186;54.062;9.962;2023-02-28T07:25:59;13.17;;;6.53;;
6306;SDS011;3186;54.062;9.962;2023-02-28T07:28:25;9.03;;;5.63;;
6306;SDS011;3186;54.062;9.962;2023-02-28T07:30:51;14.73;;;5.97;;
6306;SDS011;3186;54.062;9.962;2023-02-28T07:33:17;7.43;;;5.23;;
6306;SDS011;3186;54.062;9.962;2023-02-28T07:35:43;12.77;;;6.20;;
6306;SDS011;3186;54.062;9.962;2023-02-28T07:38:09;11.27;;;6.03;;
6306;SDS011;3186;54.062;9.962;2023-02-28T07:40:35;10.20;;;6.40;;
6306;SDS011;3186;54.062;9.962;2023-02-28T07:43:01;12.60;;;6.60;;
6306;SDS011;3186;54.062;9.962;2023-02-28T07:45:27;19.27;;;6.67;;
6306;SDS011;3186;54.062;9.962;2023-02-28T07:47:59;10.93;;;6.00;;
6306;SDS011;3186;54.062;9.962;2023-02-28T07:50:25;10.00;;;6.10;;
6306;SDS011;3186;54.062;9.962;2023-02-28T07:52:54;12.80;;;6.40;;
6306;SDS011;3186;54.062;9.962;2023-02-28T07:55:20;10.70;;;5.97;;
6306;SDS011;3186;54.062;9.962;2023-02-28T07:57:46;13.27;;;6.50;;
6306;SDS011;3186;54.062;9.962;2023-02-28T08:00:12;11.17;;;6.20;;
6306;SDS011;3186;54.062;9.962;2023-02-28T08:02:39;10.23;;;6.07;;
6306;SDS011;3186;54.062;9.962;2023-02-28T08:05:05;10.77;;;6.03;;
6306;SDS011;3186;54.062;9.962;2023-02-28T08:07:31;9.67;;;6.00;;
6306;SDS011;3186;54.062;9.962;2023-02-28T08:09:58;9.93;;;6.00;;
6306;SDS011;3186;54.062;9.962;2023-02-28T08:12:24;10.77;;;6.20;;
6306;SDS011;3186;54.062;9.962;2023-02-28T08:14:50;11.33;;;5.27;;
6306;SDS011;3186;54.062;9.962;2023-02-28T08:17:16;10.00;;;5.30;;
6306;SDS011;3186;54.062;9.962;2023-02-28T08:19:44;7.97;;;5.40;;
6306;SDS011;3186;54.062;9.962;2023-02-28T08:22:11;9.17;;;5.27;;
6306;SDS011;3186;54.062;9.962;2023-02-28T08:24:37;12.67;;;6.30;;
6306;SDS011;3186;54.062;9.962;2023-02-28T08:27:03;9.23;;;5.30;;
6306;SDS011;3186;54.062;9.962;2023-02-28T08:29:28;9.00;;;5.57;;
6306;SDS011;3186;54.062;9.962;2023-02-28T08:31:55;7.33;;;5.23;;
6306;SDS011;3186;54.062;9.962;2023-02-28T08:34:21;8.70;;;5.07;;
6306;SDS011;3186;54.062;9.962;2023-02-28T08:36:48;7.23;;;4.73;;
6306;SDS011;3186;54.062;9.962;2023-02-28T08:39:14;12.00;;;5.13;;
6306;SDS011;3186;54.062;9.962;2023-02-28T08:41:39;11.20;;;5.07;;
6306;SDS011;3186;54.062;9.962;2023-02-28T08:44:07;8.90;;;4.70;;
6306;SDS011;3186;54.062;9.962;2023-02-28T08:46:32;9.00;;;4.50;;
6306;SDS011;3186;54.062;9.962;2023-02-28T08:48:58;9.63;;;4.57;;
6306;SDS011;3186;54.062;9.962;2023-02-28T08:51:26;7.93;;;4.23;;
6306;SDS011;3186;54.062;9.962;2023-02-28T08:53:53;8.33;;;4.90;;
6306;SDS011;3186;54.062;9.962;2023-02-28T08:56:21;9.07;;;4.03;;
6306;SDS011;3186;54.062;9.962;2023-02-28T08:58:47;7.97;;;4.30;;
6306;SDS011;3186;54.062;9.962;2023-02-28T09:01:47;6.87;;;4.30;;
6306;SDS011;3186;54.062;9.962;2023-02-28T09:04:06;11.33;;;4.53;;
6306;SDS011;3186;54.062;9.962;2023-02-28T09:06:34;9.27;;;4.27;;
6306;SDS011;3186;54.062;9.962;2023-02-28T09:09:00;9.67;;;3.93;;
6306;SDS011;3186;54.062;9.962;2023-02-28T09:11:27;14.67;;;4.57;;
6306;SDS011;3186;54.062;9.962;2023-02-28T09:13:53;7.67;;;3.83;;
6306;SDS011;3186;54.062;9.962;2023-02-28T09:16:20;9.90;;;4.20;;
6306;SDS011;3186;54.062;9.962;2023-02-28T09:18:47;10.77;;;4.00;;
6306;SDS011;3186;54.062;9.962;2023-02-28T09:21:16;7.87;;;3.40;;
6306;SDS011;3186;54.062;9.962;2023-02-28T09:23:43;8.63;;;3.80;;
6306;SDS011;3186;54.062;9.962;2023-02-28T09:26:19;8.10;;;4.37;;
6306;SDS011;3186;54.062;9.962;2023-02-28T09:28:47;9.13;;;4.67;;
6306;SDS011;3186;54.062;9.962;2023-02-28T09:31:14;9.23;;;4.03;;
6306;SDS011;3186;54.062;9.962;2023-02-28T09:33:45;6.80;;;3.70;;
6306;SDS011;3186;54.062;9.962;2023-02-28T09:36:13;4.77;;;3.33;;
6306;SDS011;3186;54.062;9.962;2023-02-28T09:38:39;7.80;;;4.03;;
6306;SDS011;3186;54.062;9.962;2023-02-28T09:41:16;5.73;;;3.60;;
6306;SDS011;3186;54.062;9.962;2023-02-28T09:43:46;10.10;;;3.50;;
6306;SDS011;3186;54.062;9.962;2023-02-28T09:48:54;5.67;;;3.53;;
6306;SDS011;3186;54.062;9.962;2023-02-28T09:54:03;7.20;;;3.47;;
6306;SDS011;3186;54.062;9.962;2023-02-28T10:10:02;7.07;;;2.90;;
6306;SDS011;3186;54.062;9.962;2023-02-28T10:12:38;4.87;;;2.80;;
6306;SDS011;3186;54.062;9.962;2023-02-28T10:15:08;6.90;;;3.20;;
6306;SDS011;3186;54.062;9.962;2023-02-28T10:17:40;6.53;;;3.37;;
6306;SDS011;3186;54.062;9.962;2023-02-28T10:20:12;7.83;;;3.20;;
6306;SDS011;3186;54.062;9.962;2023-02-28T10:25:20;6.33;;;2.70;;
6306;SDS011;3186;54.062;9.962;2023-02-28T10:27:49;4.77;;;2.27;;
6306;SDS011;3186;54.062;9.962;2023-02-28T10:30:18;7.13;;;2.80;;
6306;SDS011;3186;54.062;9.962;2023-02-28T10:32:50;4.40;;;2.27;;
6306;SDS011;3186;54.062;9.962;2023-02-28T10:35:27;6.40;;;2.50;;
6306;SDS011;3186;54.062;9.962;2023-02-28T10:37:57;4.83;;;3.10;;
6306;SDS011;3186;54.062;9.962;2023-02-28T10:40:30;6.20;;;2.77;;
6306;SDS011;3186;54.062;9.962;2023-02-28T10:45:24;4.13;;;2.13;;
6306;SDS011;3186;54.062;9.962;2023-02-28T10:50:34;6.00;;;2.40;;
6306;SDS011;3186;54.062;9.962;2023-02-28T10:53:07;4.97;;;2.50;;
6306;SDS011;3186;54.062;9.962;2023-02-28T11:01:16;6.30;;;2.87;;
6306;SDS011;3186;54.062;9.962;2023-02-28T11:03:42;5.23;;;2.60;;
6306;SDS011;3186;54.062;9.962;2023-02-28T11:06:29;3.90;;;2.83;;
6306;SDS011;3186;54.062;9.962;2023-02-28T11:09:06;4.30;;;2.60;;
6306;SDS011;3186;54.062;9.962;2023-02-28T11:11:47;4.80;;;2.60;;
6306;SDS011;3186;54.062;9.962;2023-02-28T11:14:19;4.17;;;2.53;;
6306;SDS011;3186;54.062;9.962;2023-02-28T11:16:50;4.37;;;2.37;;
6306;SDS011;3186;54.062;9.962;2023-02-28T11:19:22;4.93;;;2.90;;
6306;SDS011;3186;54.062;9.962;2023-02-28T11:21:55;4.90;;;3.13;;
6306;SDS011;3186;54.062;9.962;2023-02-28T11:24:26;3.60;;;2.30;;
6306;SDS011;3186;54.062;9.962;2023-02-28T11:26:55;3.77;;;2.83;;
6306;SDS011;3186;54.062;9.962;2023-02-28T11:32:02;3.80;;;2.63;;
6306;SDS011;3186;54.062;9.962;2023-02-28T11:34:37;4.70;;;2.67;;
6306;SDS011;3186;54.062;9.962;2023-02-28T11:37:05;7.47;;;2.77;;
6306;SDS011;3186;54.062;9.962;2023-02-28T11:39:36;5.90;;;2.43;;
6306;SDS011;3186;54.062;9.962;2023-02-28T11:45:15;4.87;;;2.83;;
6306;SDS011;3186;54.062;9.962;2023-02-28T11:50:44;6.13;;;2.60;;
6306;SDS011;3186;54.062;9.962;2023-02-28T11:56:10;4.57;;;2.83;;
6306;SDS011;3186;54.062;9.962;2023-02-28T11:59:00;4.03;;;2.90;;
6306;SDS011;3186;54.062;9.962;2023-02-28T12:06:57;4.73;;;2.80;;
6306;SDS011;3186;54.062;9.962;2023-02-28T12:12:38;3.73;;;3.07;;
6306;SDS011;3186;54.062;9.962;2023-02-28T12:15:28;5.83;;;2.83;;
6306;SDS011;3186;54.062;9.962;2023-02-28T12:24:00;7.40;;;3.17;;
6306;SDS011;3186;54.062;9.962;2023-02-28T12:26:41;6.80;;;3.30;;
6306;SDS011;3186;54.062;9.962;2023-02-28T12:34:33;5.83;;;3.00;;
6306;SDS011;3186;54.062;9.962;2023-02-28T12:37:10;3.50;;;2.47;;
6306;SDS011;3186;54.062;9.962;2023-02-28T12:39:45;5.83;;;3.30;;
6306;SDS011;3186;54.062;9.962;2023-02-28T12:42:27;6.53;;;3.70;;
6306;SDS011;3186;54.062;9.962;2023-02-28T12:45:01;5.97;;;3.03;;
6306;SDS011;3186;54.062;9.962;2023-02-28T12:47:32;6.07;;;3.07;;
6306;SDS011;3186;54.062;9.962;2023-02-28T12:52:30;6.23;;;2.73;;
6306;SDS011;3186;54.062;9.962;2023-02-28T12:57:58;5.43;;;3.23;;
6306;SDS011;3186;54.062;9.962;2023-02-28T13:00:46;6.40;;;3.40;;
6306;SDS011;3186;54.062;9.962;2023-02-28T13:03:24;5.00;;;3.00;;
6306;SDS011;3186;54.062;9.962;2023-02-28T13:08:42;4.10;;;3.23;;
6306;SDS011;3186;54.062;9.962;2023-02-28T13:14:20;7.40;;;3.40;;
6306;SDS011;3186;54.062;9.962;2023-02-28T13:22:36;3.70;;;2.90;;
6306;SDS011;3186;54.062;9.962;2023-02-28T13:28:57;5.30;;;3.00;;
6306;SDS011;3186;54.062;9.962;2023-02-28T13:31:16;4.87;;;3.47;;
6306;SDS011;3186;54.062;9.962;2023-02-28T13:38:45;3.63;;;2.87;;
6306;SDS011;3186;54.062;9.962;2023-02-28T13:46:25;4.00;;;2.90;;
6306;SDS011;3186;54.062;9.962;2023-02-28T13:48:51;4.73;;;3.20;;
6306;SDS011;3186;54.062;9.962;2023-02-28T13:51:27;6.73;;;2.80;;
6306;SDS011;3186;54.062;9.962;2023-02-28T13:56:54;7.17;;;3.47;;
6306;SDS011;3186;54.062;9.962;2023-02-28T13:59:46;4.03;;;2.97;;
6306;SDS011;3186;54.062;9.962;2023-02-28T14:05:18;6.87;;;3.57;;
6306;SDS011;3186;54.062;9.962;2023-02-28T14:07:56;6.97;;;3.40;;
6306;SDS011;3186;54.062;9.962;2023-02-28T14:16:10;5.27;;;2.90;;
6306;SDS011;3186;54.062;9.962;2023-02-28T14:18:40;5.27;;;3.40;;
6306;SDS011;3186;54.062;9.962;2023-02-28T14:24:01;5.70;;;3.47;;
6306;SDS011;3186;54.062;9.962;2023-02-28T14:37:59;5.23;;;3.13;;
6306;SDS011;3186;54.062;9.962;2023-02-28T14:40:32;5.73;;;3.20;;
6306;SDS011;3186;54.062;9.962;2023-02-28T14:43:04;7.03;;;3.07;;
6306;SDS011;3186;54.062;9.962;2023-02-28T14:45:32;5.50;;;3.30;;
6306;SDS011;3186;54.062;9.962;2023-02-28T14:48:01;4.77;;;3.20;;
6306;SDS011;3186;54.062;9.962;2023-02-28T14:50:38;3.50;;;2.97;;
6306;SDS011;3186;54.062;9.962;2023-02-28T14:53:04;6.17;;;3.13;;
6306;SDS011;3186;54.062;9.962;2023-02-28T14:55:36;4.23;;;3.00;;
6306;SDS011;3186;54.062;9.962;2023-02-28T14:58:03;6.80;;;3.43;;
6306;SDS011;3186;54.062;9.962;2023-02-28T15:00:32;6.63;;;2.90;;
6306;SDS011;3186;54.062;9.962;2023-02-28T15:05:54;4.63;;;2.97;;
6306;SDS011;3186;54.062;9.962;2023-02-28T15:08:25;3.27;;;2.97;;
6306;SDS011;3186;54.062;9.962;2023-02-28T15:10:55;3.83;;;2.80;;
6306;SDS011;3186;54.062;9.962;2023-02-28T15:13:36;4.03;;;2.70;;
6306;SDS011;3186;54.062;9.962;2023-02-28T15:21:18;5.70;;;3.63;;
6306;SDS011;3186;54.062;9.962;2023-02-28T15:23:49;3.47;;;2.60;;
6306;SDS011;3186;54.062;9.962;2023-02-28T15:26:30;5.17;;;3.23;;
6306;SDS011;3186;54.062;9.962;2023-02-28T15:29:00;6.23;;;3.30;;
6306;SDS011;3186;54.062;9.962;2023-02-28T15:31:30;3.17;;;2.83;;
6306;SDS011;3186;54.062;9.962;2023-02-28T15:34:02;3.10;;;2.80;;
6306;SDS011;3186;54.062;9.962;2023-02-28T15:36:30;5.17;;;3.03;;
6306;SDS011;3186;54.062;9.962;2023-02-28T15:38:59;4.93;;;3.17;;
6306;SDS011;3186;54.062;9.962;2023-02-28T15:41:29;4.40;;;3.77;;
6306;SDS011;3186;54.062;9.962;2023-02-28T15:49:51;4.80;;;3.17;;
6306;SDS011;3186;54.062;9.962;2023-02-28T15:52:21;7.40;;;3.23;;
6306;SDS011;3186;54.062;9.962;2023-02-28T15:57:53;3.07;;;2.60;;
6306;SDS011;3186;54.062;9.962;2023-02-28T16:00:24;3.77;;;2.80;;
6306;SDS011;3186;54.062;9.962;2023-02-28T16:02:51;4.17;;;2.83;;
6306;SDS011;3186;54.062;9.962;2023-02-28T16:05:22;3.77;;;2.80;;
6306;SDS011;3186;54.062;9.962;2023-02-28T16:07:53;3.47;;;3.03;;
6306;SDS011;3186;54.062;9.962;2023-02-28T16:10:20;3.67;;;2.60;;
6306;SDS011;3186;54.062;9.962;2023-02-28T16:12:50;4.23;;;3.30;;
6306;SDS011;3186;54.062;9.962;2023-02-28T16:17:46;4.63;;;3.47;;
6306;SDS011;3186;54.062;9.962;2023-02-28T16:20:13;5.60;;;3.60;;
6306;SDS011;3186;54.062;9.962;2023-02-28T16:22:39;5.70;;;3.80;;
6306;SDS011;3186;54.062;9.962;2023-02-28T16:25:08;6.27;;;4.40;;
6306;SDS011;3186;54.062;9.962;2023-02-28T16:27:38;10.67;;;4.57;;
6306;SDS011;3186;54.062;9.962;2023-02-28T16:30:05;5.67;;;3.77;;
6306;SDS011;3186;54.062;9.962;2023-02-28T16:32:35;4.60;;;3.70;;
6306;SDS011;3186;54.062;9.962;2023-02-28T16:35:02;8.70;;;4.70;;
6306;SDS011;3186;54.062;9.962;2023-02-28T16:37:28;6.80;;;4.40;;
6306;SDS011;3186;54.062;9.962;2023-02-28T16:39:54;8.07;;;4.50;;
6306;SDS011;3186;54.062;9.962;2023-02-28T16:42:21;9.37;;;4.57;;
6306;SDS011;3186;54.062;9.962;2023-02-28T16:44:50;5.73;;;4.10;;
6306;SDS011;3186;54.062;9.962;2023-02-28T16:47:17;9.13;;;4.53;;
6306;SDS011;3186;54.062;9.962;2023-02-28T16:49:43;7.67;;;4.97;;
6306;SDS011;3186;54.062;9.962;2023-02-28T16:52:09;9.37;;;5.50;;
6306;SDS011;3186;54.062;9.962;2023-02-28T16:54:37;9.27;;;5.23;;
6306;SDS011;3186;54.062;9.962;2023-02-28T16:57:04;8.77;;;5.87;;
6306;SDS011;3186;54.062;9.962;2023-02-28T16:59:31;8.20;;;5.63;;
6306;SDS011;3186;54.062;9.962;2023-02-28T17:01:57;7.30;;;5.20;;
6306;SDS011;3186;54.062;9.962;2023-02-28T17:04:24;11.50;;;6.20;;
6306;SDS011;3186;54.062;9.962;2023-02-28T17:06:50;9.30;;;5.80;;
6306;SDS011;3186;54.062;9.962;2023-02-28T17:09:17;9.33;;;5.33;;
6306;SDS011;3186;54.062;9.962;2023-02-28T17:11:45;9.63;;;5.93;;
6306;SDS011;3186;54.062;9.962;2023-02-28T17:14:11;7.27;;;4.80;;
6306;SDS011;3186;54.062;9.962;2023-02-28T17:16:38;8.07;;;5.13;;
6306;SDS011;3186;54.062;9.962;2023-02-28T17:19:12;8.13;;;5.87;;
6306;SDS011;3186;54.062;9.962;2023-02-28T17:21:39;8.10;;;4.57;;
6306;SDS011;3186;54.062;9.962;2023-02-28T17:24:07;7.80;;;5.30;;
6306;SDS011;3186;54.062;9.962;2023-02-28T17:26:33;6.97;;;4.87;;
6306;SDS011;3186;54.062;9.962;2023-02-28T17:28:59;12.00;;;4.70;;
6306;SDS011;3186;54.062;9.962;2023-02-28T17:31:25;8.17;;;4.87;;
6306;SDS011;3186;54.062;9.962;2023-02-28T17:33:52;8.20;;;5.40;;
6306;SDS011;3186;54.062;9.962;2023-02-28T17:36:40;7.23;;;4.50;;
6306;SDS011;3186;54.062;9.962;2023-02-28T17:39:05;10.17;;;5.60;;
6306;SDS011;3186;54.062;9.962;2023-02-28T17:41:36;7.37;;;5.00;;
6306;SDS011;3186;54.062;9.962;2023-02-28T17:44:02;9.57;;;5.37;;
6306;SDS011;3186;54.062;9.962;2023-02-28T17:46:27;9.50;;;5.33;;
6306;SDS011;3186;54.062;9.962;2023-02-28T17:48:53;7.33;;;5.20;;
6306;SDS011;3186;54.062;9.962;2023-02-28T17:51:20;6.23;;;4.83;;
6306;SDS011;3186;54.062;9.962;2023-02-28T17:53:49;8.52;;;5.43;;
6306;SDS011;3186;54.062;9.962;2023-02-28T17:56:19;8.33;;;5.93;;
6306;SDS011;3186;54.062;9.962;2023-02-28T17:58:48;9.93;;;6.03;;
6306;SDS011;3186;54.062;9.962;2023-02-28T18:01:14;9.83;;;5.83;;
6306;SDS011;3186;54.062;9.962;2023-02-28T18:03:40;10.30;;;5.50;;
6306;SDS011;3186;54.062;9.962;2023-02-28T18:06:06;8.90;;;5.97;;
6306;SDS011;3186;54.062;9.962;2023-02-28T18:08:37;9.27;;;5.90;;
6306;SDS011;3186;54.062;9.962;2023-02-28T18:11:03;10.20;;;5.90;;
6306;SDS011;3186;54.062;9.962;2023-02-28T18:13:29;8.43;;;5.60;;
6306;SDS011;3186;54.062;9.962;2023-02-28T18:15:54;11.70;;;6.23;;
6306;SDS011;3186;54.062;9.962;2023-02-28T18:18:20;10.87;;;6.60;;
6306;SDS011;3186;54.062;9.962;2023-02-28T18:20:46;9.77;;;5.97;;
6306;SDS011;3186;54.062;9.962;2023-02-28T18:23:15;11.67;;;6.50;;
6306;SDS011;3186;54.062;9.962;2023-02-28T18:25:42;9.83;;;6.30;;
6306;SDS011;3186;54.062;9.962;2023-02-28T18:28:08;9.73;;;5.67;;
6306;SDS011;3186;54.062;9.962;2023-02-28T18:30:35;9.10;;;6.37;;
6306;SDS011;3186;54.062;9.962;2023-02-28T18:33:01;9.17;;;6.20;;